AirNav   Everest Fuels
 
 1063 users online  

2NC5 Meridian Corporate Center Heliport
Charlotte, North Carolina, USA

GOING TO CHARLOTTE?


FAA INFORMATION EFFECTIVE 22 APRIL 2021

Location

FAA Identifier: 2NC5
Lat/Long: 35-14-10.5080N 080-55-59.2620W
35-14.175133N 080-55.987700W
35.2362522,-80.9331283
(estimated)
Elevation: 773 ft. / 236 m (estimated)
Variation: 05W (1985)
Time zone: UTC -4 (UTC -5 during Standard Time)
Zip code: 28208

Heliport Operations

Heliport use: Private use. Permission required prior to landing
Activation date: 11/1982
Control tower: no
ARTCC: ATLANTA CENTER
FSS: RALEIGH FLIGHT SERVICE STATION
Attendance: UNATNDD
Wind indicator: yes
Segmented circle: no

Heliport Communications

WX ASOS at CLT (1.6 nm SW): 121.15 (704-359-0235)
WX ASOS at AKH (11 nm W): 135.725 (704-868-9034)
WX AWOS-3 at JQF (14 nm NE): 133.675 (704-785-2145)
WX ASOS at UZA (16 nm S): 120.775 (803-981-9388)
WX AWOS-3 at IPJ (19 nm NW): 119.675 (704-735-6954)

Nearby radio navigation aids

VOR radial/distance  VOR name  Freq  Var
CLTr023/2.9CHARLOTTE VOR/DME115.0005W

 
NDB name  Hdg/Dist  Freq  Var  ID
STONIA082/11.326006WGHJ --. .... .---
CHESTER032/30.122006WDCM -.. -.-. --
LANCASTER000/31.040007WLKR .-.. -.- .-.
FIRST RIVER098/32.641706WSLP ... .-.. .--.

Heliport Services

Runway Information

Helipad H1

Dimensions: 110 x 110 ft. / 34 x 34 m
Surface: asphalt, in good condition
Latitude: 35-14.175133N
Longitude: 080-55.987700W
Elevation: 773.0 ft.
Traffic pattern: leftleft
Markings: none, in fair condition

Heliport Ownership and Management from official FAA records

Ownership: Privately-owned
Owner: BRIT - CHARLOTTE, LLC
8501 IBM DRIVE SUITE 101
CHARLOTTE, NC 28262
Phone 704-808-4210
Manager: SHARON WILLIAMS
8505 IBM DRIVE SUITE 100
CHARLOTTE, NC 28262
Phone 704-808-4210

Additional Remarks

FOR CD CTC CHARLOTTE APCH AT 704-359-0241.

Instrument Procedures

There are no published instrument procedures at 2NC5.

Some nearby airports with instrument procedures:

KCLT - Charlotte/Douglas International Airport (2 nm SW)
KAKH - Gastonia Municipal Airport (11 nm W)
KJQF - Concord-Padgett Regional Airport (14 nm NE)
KUZA - Rock Hill (York County) Airport-Bryant Field (16 nm S)
KIPJ - Lincolnton-Lincoln County Regional Airport (19 nm NW)
 
Loc | Ops | Rwys | IFR | FBO | Links
Com | Nav | Svcs | Stats | Notes
Area around 2NC5 (Meridian Corporate Center Heliport)
 
Road maps at: MapQuest Bing Google
 
Aerial photo
No photo
 
Sectional chart

 
Airport distance calculator
Flying to Meridian Corporate Center Heliport? Find the distance to fly.

From to 2NC5

Sunrise and sunset
Times for 16-May-2021
 Local
(UTC-4)
 Zulu
(UTC)
Morning civil twilight05:5209:52
Sunrise06:2010:20
Sunset20:2000:20
Evening civil twilight20:4900:49

Current date and time
Zulu (UTC)  16-May-2021 23:55:22
Local (UTC-4)  16-May-2021 19:55:22
 
METAR
KCLT 162252Z 00000KT 10SM OVC090 24/12 A3018 RMK AO2 SLP215 T02440117
KAKH 
11nm W 
162254Z AUTO 00000KT 10SM OVC070 24/10 A3018 RMK AO2 SLP214 T02390100
KJQF 
14nm NE 
162250Z 02004KT 10SM BKN065 OVC085 22/12 A3021
KUZA 
16nm S 
162254Z AUTO 20005KT 10SM SCT065 OVC085 24/11 A3018 RMK AO2 SLP212 T02440111
KIPJ 
19nm NW 
162335Z AUTO 05004KT 10SM SCT065 BKN110 21/13 A3019 RMK AO2 T02050125
TAF
KCLT 162159Z 1622/1724 25004KT P6SM SCT060 BKN100 FM162300 03003KT P6SM BKN060 OVC090 FM170300 07003KT P6SM BKN050 FM171500 14005KT P6SM SCT050 SCT100
NOTAMs
Click for the latest NOTAMs
NOTAMs are issued by the DoD/FAA and will open in a separate window not controlled by AirNav.

 

 
 

Would you like to see your business listed on this page?

 If your business provides an interesting product or service to pilots, flight crews, aircraft, or users of the Meridian Corporate Center Heliport, you should consider listing it here.  To start the listing process, click on the button below
 
Add a business
 

Other Pages about Meridian Corporate Center Heliport

Update a link
 
Copyright © AirNav, LLC. All rights reserved. Privacy Policy  Contact